Terminal Aerodrome Forecast
Issued by NWS Goodland, KS

Home | Current Version | Previous Version | Text Only | Print | Product List | Glossary On
Versions: 1 2 3 4 5 6 7 8 9 10 11 12 13 14 15 16 17 18 19 20
000
FTUS43 KGLD 201127
TAFGLD
TAF
KGLD 201127Z 2012/2112 26007KT P6SM FEW200
     FM202100 29008KT P6SM SCT110 SCT200
     FM210300 24007KT P6SM SCT050 SCT100 BKN200
     FM211000 26006KT P6SM BKN070=

USA.gov is the U.S. government's official web portal to all federal, state and local government web resources and services.